Time;durP1;ratioP1;P1;durP2;ratioP2;P2;SDS_P1;SDS_P2;PMS_P1;PMS_P2;Temp;Humidity;BMP_temperature;BMP_pressure;BME280_temperature;BME280_humidity;BME280_pressure;Samples;Min_cycle;Max_cycle;Signal;HPM_P1;HPM_P2
2021/06/24 00:01:40;;;;;;;9.68;4.75;;;23.60;81.00;;;;;;5069289;28;20222;-70
2021/06/24 00:04:06;;;;;;;15.85;5.60;;;23.60;80.90;;;;;;5065795;28;20183;-70
2021/06/24 00:06:32;;;;;;;14.05;4.80;;;23.50;81.10;;;;;;5066696;28;20179;-70
2021/06/24 00:08:57;;;;;;;8.20;4.28;;;23.50;81.20;;;;;;5079056;28;20189;-69
2021/06/24 00:11:23;;;;;;;5.75;4.18;;;23.50;81.20;;;;;;5064228;28;20195;-70
2021/06/24 00:13:49;;;;;;;10.55;4.18;;;23.50;81.40;;;;;;5058812;28;20183;-71
2021/06/24 00:16:14;;;;;;;7.18;4.57;;;23.50;81.50;;;;;;5066815;28;20222;-70
2021/06/24 00:18:41;;;;;;;4.20;3.90;;;23.50;81.60;;;;;;5065742;28;20664;-70
2021/06/24 00:21:07;;;;;;;6.28;4.47;;;23.40;81.70;;;;;;5065229;28;20195;-71
2021/06/24 00:23:34;;;;;;;11.52;4.85;;;23.40;81.80;;;;;;5064927;28;20194;-70
2021/06/24 00:25:59;;;;;;;13.48;4.78;;;23.40;82.10;;;;;;5064616;28;20266;-70
2021/06/24 00:28:28;;;;;;;13.23;5.05;;;23.30;82.40;;;;;;5064576;28;20278;-69
2021/06/24 00:30:55;;;;;;;8.70;4.68;;;23.30;82.60;;;;;;5054812;28;20257;-70
2021/06/24 00:33:21;;;;;;;13.18;4.78;;;23.20;82.50;;;;;;5069068;28;20190;-70
2021/06/24 00:35:47;;;;;;;8.43;4.40;;;23.20;82.60;;;;;;5069287;28;20593;-70
2021/06/24 00:38:13;;;;;;;14.38;4.60;;;23.20;83.10;;;;;;5063396;28;20187;-70
2021/06/24 00:40:41;;;;;;;12.30;4.38;;;23.10;83.30;;;;;;5069370;28;20187;-70
2021/06/24 00:43:11;;;;;;;9.85;4.93;;;23.10;83.10;;;;;;5070670;28;20189;-70
2021/06/24 00:45:38;;;;;;;13.60;4.85;;;23.00;82.90;;;;;;5070024;28;20213;-70
2021/06/24 00:48:06;;;;;;;11.10;5.57;;;23.00;83.10;;;;;;5068651;28;20723;-70
2021/06/24 00:50:32;;;;;;;15.43;5.38;;;23.00;83.40;;;;;;5066819;28;20186;-70
2021/06/24 00:52:57;;;;;;;11.05;5.05;;;23.00;83.40;;;;;;5081350;28;20190;-70
2021/06/24 00:55:45;;;;;;;14.02;4.40;;;23.00;83.50;;;;;;5065345;28;20210;-70
2021/06/24 00:58:15;;;;;;;9.18;4.50;;;22.90;83.80;;;;;;5070238;28;20194;-70
2021/06/24 01:00:44;;;;;;;9.15;4.60;;;22.90;83.30;;;;;;5067521;28;20186;-70
2021/06/24 01:03:11;;;;;;;9.10;3.92;;;22.80;83.60;;;;;;5067925;28;20179;-70
2021/06/24 01:05:37;;;;;;;7.38;4.20;;;22.80;83.60;;;;;;5066815;28;20309;-71
2021/06/24 01:08:08;;;;;;;7.07;4.25;;;22.80;83.70;;;;;;5067831;28;20221;-70
2021/06/24 01:10:35;;;;;;;8.48;4.80;;;22.80;83.30;;;;;;5067890;28;20198;-69
2021/06/24 01:13:01;;;;;;;10.95;5.22;;;22.70;83.60;;;;;;5068152;28;20269;-70
2021/06/24 01:15:27;;;;;;;12.05;4.75;;;22.70;83.80;;;;;;5068980;28;20203;-70
2021/06/24 01:17:58;;;;;;;10.73;5.00;;;22.70;84.20;;;;;;5068958;28;20187;-70
2021/06/24 01:20:25;;;;;;;7.78;4.28;;;22.70;83.80;;;;;;5069345;28;20668;-70
2021/06/24 01:22:52;;;;;;;5.95;4.35;;;22.70;84.40;;;;;;5068914;28;20214;-70
2021/06/24 01:25:18;;;;;;;11.23;5.53;;;22.60;84.40;;;;;;5067397;28;20190;-70
2021/06/24 01:27:44;;;;;;;16.48;5.40;;;22.60;84.30;;;;;;5068122;28;20258;-70
2021/06/24 01:30:10;;;;;;;18.30;5.28;;;22.60;84.50;;;;;;5077364;28;20269;-69
2021/06/24 01:32:36;;;;;;;16.92;4.97;;;22.50;84.50;;;;;;5069720;28;20240;-70
2021/06/24 01:35:02;;;;;;;9.32;5.30;;;22.50;84.70;;;;;;5069584;28;20187;-69
2021/06/24 01:37:28;;;;;;;7.45;4.47;;;22.40;84.60;;;;;;5065164;28;20604;-69
2021/06/24 01:39:54;;;;;;;8.95;5.22;;;22.40;84.70;;;;;;5060686;28;20214;-69
2021/06/24 01:42:19;;;;;;;7.82;4.63;;;22.40;84.70;;;;;;5062907;28;20215;-70
2021/06/24 01:44:45;;;;;;;8.70;4.32;;;22.30;84.60;;;;;;5059992;28;20194;-69
2021/06/24 01:47:12;;;;;;;10.20;4.43;;;22.30;84.70;;;;;;5062069;28;20194;-68
2021/06/24 01:49:37;;;;;;;11.30;4.43;;;22.30;84.60;;;;;;5065788;28;20175;-69
2021/06/24 01:52:04;;;;;;;8.07;4.78;;;22.30;84.90;;;;;;5067091;28;20549;-70
2021/06/24 01:54:29;;;;;;;5.88;4.13;;;22.20;85.00;;;;;;5064354;28;20211;-70
2021/06/24 01:56:55;;;;;;;10.75;4.75;;;22.20;85.10;;;;;;5062495;28;20650;-70
2021/06/24 01:59:21;;;;;;;18.83;5.45;;;22.20;85.10;;;;;;5067947;28;20187;-70
2021/06/24 02:01:47;;;;;;;9.45;5.38;;;22.20;85.50;;;;;;5065773;28;20223;-70
2021/06/24 02:04:12;;;;;;;9.57;3.85;;;22.10;85.90;;;;;;5067947;28;20198;-70
2021/06/24 02:06:38;;;;;;;12.18;5.25;;;22.10;86.10;;;;;;5056003;28;20179;-70
2021/06/24 02:09:05;;;;;;;12.40;4.88;;;22.10;85.90;;;;;;5063870;28;20229;-71
2021/06/24 02:11:31;;;;;;;4.63;4.22;;;22.00;86.10;;;;;;5069192;28;20590;-70
2021/06/24 02:13:57;;;;;;;11.27;5.28;;;22.00;86.40;;;;;;5066706;28;20178;-71
2021/06/24 02:16:22;;;;;;;11.15;4.78;;;21.90;86.40;;;;;;5067784;28;20585;-70
2021/06/24 02:18:48;;;;;;;12.45;4.93;;;21.90;86.60;;;;;;5067880;28;20170;-70
2021/06/24 02:21:14;;;;;;;17.48;5.10;;;21.90;88.20;;;;;;5067322;28;20286;-70
2021/06/24 02:23:39;;;;;;;11.20;4.55;;;21.80;86.80;;;;;;5066600;28;20179;-70
2021/06/24 02:26:05;;;;;;;6.85;4.57;;;21.80;87.20;;;;;;5067200;28;20248;-70
2021/06/24 02:28:31;;;;;;;14.32;5.32;;;21.70;87.30;;;;;;5061627;28;20228;-70
2021/06/24 02:30:57;;;;;;;9.27;4.88;;;21.70;87.50;;;;;;5067503;28;20688;-70
2021/06/24 02:33:23;;;;;;;6.93;4.50;;;21.60;87.50;;;;;;5060721;28;20265;-69
2021/06/24 02:35:55;;;;;;;10.95;4.20;;;21.60;87.30;;;;;;5065021;28;20187;-69
2021/06/24 02:38:21;;;;;;;14.30;4.30;;;21.60;86.80;;;;;;5066338;28;20170;-69
2021/06/24 02:40:47;;;;;;;14.32;5.28;;;21.60;87.60;;;;;;5066991;28;20183;-70
2021/06/24 02:43:13;;;;;;;11.07;5.00;;;21.50;87.50;;;;;;5071663;28;20182;-70
2021/06/24 02:45:41;;;;;;;7.93;4.78;;;21.50;87.60;;;;;;5067051;28;20183;-70
2021/06/24 02:48:07;;;;;;;7.50;4.55;;;21.50;87.50;;;;;;5066337;28;20206;-70
2021/06/24 02:50:34;;;;;;;12.50;4.22;;;21.50;87.40;;;;;;5066949;28;20586;-70
2021/06/24 02:52:59;;;;;;;11.70;4.70;;;21.40;87.80;;;;;;5063483;28;20249;-69
2021/06/24 02:55:30;;;;;;;17.65;5.05;;;21.40;87.70;;;;;;5067720;28;20186;-70
2021/06/24 02:57:57;;;;;;;11.73;4.85;;;21.40;87.60;;;;;;5066866;28;20171;-70
2021/06/24 03:00:23;;;;;;;7.15;4.03;;;21.40;87.60;;;;;;5064871;28;20192;-70
2021/06/24 03:02:49;;;;;;;8.25;4.25;;;21.40;87.60;;;;;;5066275;28;20229;-70
2021/06/24 03:05:15;;;;;;;12.50;4.53;;;21.40;87.80;;;;;;5067799;28;20179;-69
2021/06/24 03:07:41;;;;;;;14.85;4.82;;;21.40;88.10;;;;;;5065151;28;20187;-68
2021/06/24 03:10:09;;;;;;;11.55;4.55;;;21.50;88.00;;;;;;5076597;28;20189;-69
2021/06/24 03:12:35;;;;;;;9.05;5.38;;;21.50;88.50;;;;;;5065406;28;20186;-68
2021/06/24 03:15:02;;;;;;;12.77;4.75;;;21.50;88.70;;;;;;5060181;28;20259;-68
2021/06/24 03:17:28;;;;;;;11.73;5.05;;;21.50;88.80;;;;;;5061061;28;20191;-69
2021/06/24 03:19:54;;;;;;;17.67;5.07;;;21.60;88.30;;;;;;5063685;28;20759;-69
2021/06/24 03:22:19;;;;;;;5.72;4.70;;;21.60;88.70;;;;;;5066082;28;20214;-70
2021/06/24 03:24:45;;;;;;;13.60;4.80;;;21.60;88.70;;;;;;5062497;28;20183;-70
2021/06/24 03:27:11;;;;;;;13.70;5.47;;;21.60;89.30;;;;;;5065876;28;20183;-70
2021/06/24 03:29:36;;;;;;;6.60;4.45;;;21.60;88.90;;;;;;5062619;28;20634;-69
2021/06/24 03:32:03;;;;;;;11.45;5.47;;;21.70;88.70;;;;;;5066479;28;20214;-68
2021/06/24 03:34:28;;;;;;;9.65;5.50;;;21.70;88.30;;;;;;5058465;28;20183;-70
2021/06/24 03:36:54;;;;;;;9.60;4.72;;;21.70;88.30;;;;;;5063290;28;20219;-70
2021/06/24 03:39:20;;;;;;;14.60;5.15;;;21.70;88.40;;;;;;5059481;28;20267;-70
2021/06/24 03:41:46;;;;;;;11.32;4.80;;;21.70;88.20;;;;;;5058426;28;20211;-70
2021/06/24 03:44:12;;;;;;;10.57;5.13;;;21.70;88.20;;;;;;5063425;28;20274;-70
2021/06/24 03:46:37;;;;;;;13.90;5.30;;;21.80;88.40;;;;;;5064364;28;20214;-70
2021/06/24 03:49:04;;;;;;;10.60;5.00;;;21.70;88.80;;;;;;5060664;28;20626;-70
2021/06/24 03:51:30;;;;;;;12.00;4.70;;;21.70;88.50;;;;;;5062633;28;20589;-70
2021/06/24 03:53:57;;;;;;;10.20;5.30;;;21.80;88.70;;;;;;5064250;28;20171;-70
2021/06/24 03:56:22;;;;;;;10.43;5.47;;;21.80;88.40;;;;;;5066205;28;20179;-68
2021/06/24 03:58:48;;;;;;;16.85;5.60;;;21.70;88.50;;;;;;5063377;28;20259;-71
2021/06/24 04:01:14;;;;;;;15.68;5.22;;;21.70;88.90;;;;;;5061008;28;20272;-70
2021/06/24 04:03:39;;;;;;;11.25;5.07;;;21.70;88.80;;;;;;5065579;28;20183;-72
2021/06/24 04:06:06;;;;;;;14.18;5.55;;;21.60;88.90;;;;;;5065446;28;20274;-71
2021/06/24 04:08:32;;;;;;;12.30;5.65;;;21.60;90.10;;;;;;5066994;28;20183;-70
2021/06/24 04:10:58;;;;;;;13.20;5.65;;;21.60;89.00;;;;;;5071400;28;20193;-70
2021/06/24 04:13:24;;;;;;;15.18;5.53;;;21.60;88.80;;;;;;5070610;28;20652;-70
2021/06/24 04:15:49;;;;;;;11.35;4.88;;;21.60;88.80;;;;;;5067864;28;20264;-69
2021/06/24 04:18:15;;;;;;;11.95;5.25;;;21.60;88.60;;;;;;5073071;28;20174;-69
2021/06/24 04:20:41;;;;;;;19.05;4.90;;;21.60;88.40;;;;;;5071710;28;20262;-69
2021/06/24 04:23:07;;;;;;;9.80;4.75;;;21.70;88.20;;;;;;5067514;28;20178;-69
2021/06/24 04:25:33;;;;;;;8.52;4.50;;;21.70;88.30;;;;;;5069410;28;20195;-70
2021/06/24 04:28:00;;;;;;;9.48;4.93;;;21.80;87.80;;;;;;5069568;28;20179;-69
2021/06/24 04:30:27;;;;;;;14.30;4.80;;;21.80;87.70;;;;;;5070572;28;20746;-71
2021/06/24 04:32:54;;;;;;;9.95;5.05;;;21.90;87.70;;;;;;5083679;28;20174;-69
2021/06/24 04:35:20;;;;;;;11.82;5.60;;;21.90;87.40;;;;;;5071782;28;20269;-70
2021/06/24 04:37:45;;;;;;;9.65;5.18;;;21.90;87.60;;;;;;5068909;28;20269;-69
2021/06/24 04:40:12;;;;;;;13.23;5.30;;;22.00;87.80;;;;;;5074366;28;20197;-68
2021/06/24 04:42:38;;;;;;;19.27;6.53;;;22.00;87.60;;;;;;5077670;28;20206;-70
2021/06/24 04:45:05;;;;;;;9.32;5.78;;;22.00;87.70;;;;;;5068254;28;20174;-70
2021/06/24 04:47:31;;;;;;;11.15;4.78;;;22.10;87.30;;;;;;5068746;28;20214;-68
2021/06/24 04:49:56;;;;;;;18.38;5.30;;;22.10;87.80;;;;;;5069970;28;20175;-70
2021/06/24 04:52:22;;;;;;;18.55;5.95;;;22.20;87.70;;;;;;5064278;28;20201;-70
2021/06/24 04:54:48;;;;;;;13.45;5.10;;;22.20;87.50;;;;;;5069278;28;20193;-70
2021/06/24 04:57:14;;;;;;;6.68;5.10;;;22.30;87.40;;;;;;5069917;28;20182;-69
2021/06/24 04:59:39;;;;;;;9.95;4.80;;;22.30;87.20;;;;;;5071190;28;20261;-70
2021/06/24 05:02:07;;;;;;;16.55;5.20;;;22.30;87.20;;;;;;5075565;28;20206;-72
2021/06/24 05:04:33;;;;;;;14.73;5.03;;;22.40;87.10;;;;;;5065578;28;20176;-72
2021/06/24 05:07:03;;;;;;;14.95;4.95;;;22.40;86.90;;;;;;5064225;28;20183;-69
2021/06/24 05:09:33;;;;;;;14.45;5.00;;;22.50;86.80;;;;;;5068102;28;20187;-69
2021/06/24 05:11:58;;;;;;;18.95;5.78;;;22.60;86.30;;;;;;5065306;28;20266;-71
2021/06/24 05:14:24;;;;;;;14.90;5.85;;;22.60;86.10;;;;;;5070855;28;20194;-70
2021/06/24 05:16:50;;;;;;;15.20;5.40;;;22.70;86.10;;;;;;5069429;28;20190;-69
2021/06/24 05:19:16;;;;;;;13.55;5.68;;;22.70;85.90;;;;;;5066113;28;20194;-72
2021/06/24 05:21:42;;;;;;;11.45;5.10;;;22.80;85.80;;;;;;5067829;28;20210;-70
2021/06/24 05:24:10;;;;;;;11.75;5.32;;;22.80;85.70;;;;;;5084171;28;20724;-70
2021/06/24 05:26:36;;;;;;;9.10;5.18;;;22.90;85.50;;;;;;5066229;28;20901;-70
2021/06/24 05:29:02;;;;;;;13.40;5.25;;;22.90;85.50;;;;;;5066932;28;20388;-70
2021/06/24 05:31:28;;;;;;;14.32;5.53;;;23.00;85.50;;;;;;5063868;28;20692;-70
2021/06/24 05:33:53;;;;;;;16.67;5.13;;;23.00;85.30;;;;;;5065145;28;20279;-69
2021/06/24 05:36:19;;;;;;;16.73;5.47;;;23.10;85.10;;;;;;5066831;28;20214;-70
2021/06/24 05:38:45;;;;;;;14.23;4.78;;;23.10;85.00;;;;;;5066820;28;20183;-70
2021/06/24 05:41:10;;;;;;;13.20;6.35;;;23.20;85.50;;;;;;5066632;28;20281;-70
2021/06/24 05:43:36;;;;;;;13.27;5.72;;;23.30;85.50;;;;;;5067845;28;20209;-70
2021/06/24 05:46:02;;;;;;;13.27;5.90;;;23.30;85.30;;;;;;5063484;28;20188;-70
2021/06/24 05:48:28;;;;;;;18.15;6.20;;;23.40;84.70;;;;;;5077081;28;20179;-70
2021/06/24 05:50:53;;;;;;;26.70;6.57;;;23.40;84.60;;;;;;5067348;28;20187;-70
2021/06/24 05:53:19;;;;;;;18.67;5.80;;;23.40;84.60;;;;;;5068444;28;20227;-70
2021/06/24 05:55:48;;;;;;;17.27;5.78;;;23.50;84.70;;;;;;5067648;28;20174;-70
2021/06/24 05:58:26;;;;;;;11.73;5.45;;;23.50;84.40;;;;;;5065901;28;20194;-70
2021/06/24 06:00:54;;;;;;;14.93;5.63;;;23.50;84.30;;;;;;5068583;28;20217;-69
2021/06/24 06:03:21;;;;;;;10.13;6.55;;;23.60;84.00;;;;;;5068382;28;20210;-69
2021/06/24 06:05:47;;;;;;;13.18;5.80;;;23.60;83.90;;;;;;5067603;28;20855;-69
2021/06/24 06:08:13;;;;;;;13.00;5.80;;;23.70;83.70;;;;;;5067797;28;20663;-68
2021/06/24 06:10:40;;;;;;;11.18;5.90;;;23.70;83.60;;;;;;5068455;28;20207;-70
2021/06/24 06:13:07;;;;;;;14.25;6.28;;;23.80;83.70;;;;;;5081194;28;20623;-69
2021/06/24 06:15:38;;;;;;;14.85;6.93;;;23.90;83.50;;;;;;5068221;28;20202;-70
2021/06/24 06:18:11;;;;;;;10.80;6.20;;;24.00;84.20;;;;;;5067641;28;20174;-70
2021/06/24 06:20:37;;;;;;;11.68;5.38;;;24.10;83.30;;;;;;5068083;28;20183;-69
2021/06/24 06:23:03;;;;;;;16.77;6.95;;;24.20;83.50;;;;;;5067232;28;20226;-70
2021/06/24 06:25:31;;;;;;;20.35;6.38;;;24.30;83.60;;;;;;5068331;28;20684;-70
2021/06/24 06:27:56;;;;;;;20.17;6.63;;;24.30;84.00;;;;;;5068992;28;20240;-70
2021/06/24 06:30:23;;;;;;;12.80;6.25;;;24.40;83.30;;;;;;5066945;28;20198;-69
2021/06/24 06:32:49;;;;;;;20.90;6.75;;;24.50;83.20;;;;;;5067777;28;20202;-70
2021/06/24 06:35:14;;;;;;;10.57;6.38;;;24.60;82.80;;;;;;5067685;28;20272;-69
2021/06/24 06:37:40;;;;;;;15.65;6.00;;;24.70;83.10;;;;;;5067652;28;20183;-69
2021/06/24 06:40:06;;;;;;;15.23;6.32;;;24.80;82.80;;;;;;5067615;28;20175;-70
2021/06/24 06:42:32;;;;;;;11.55;6.47;;;24.80;82.20;;;;;;5067853;28;20232;-70
2021/06/24 06:44:58;;;;;;;17.33;7.40;;;24.90;81.80;;;;;;5068242;28;20179;-69
2021/06/24 06:47:23;;;;;;;15.57;6.63;;;25.00;82.40;;;;;;5066321;28;20303;-69
2021/06/24 06:49:49;;;;;;;13.02;6.28;;;25.00;81.30;;;;;;5066285;28;20624;-69
2021/06/24 06:52:15;;;;;;;13.45;6.60;;;25.10;81.30;;;;;;5065971;28;20629;-69
2021/06/24 06:54:40;;;;;;;14.73;6.40;;;25.20;81.20;;;;;;5066086;28;20623;-69
2021/06/24 06:57:06;;;;;;;17.65;6.78;;;25.30;81.30;;;;;;5059638;28;20186;-70
2021/06/24 06:59:34;;;;;;;14.82;5.97;;;25.40;81.40;;;;;;5066061;28;20613;-70
2021/06/24 07:02:00;;;;;;;17.02;6.93;;;25.50;81.20;;;;;;5066179;28;20206;-71
2021/06/24 07:04:26;;;;;;;17.85;6.50;;;25.60;81.00;;;;;;5066046;28;20225;-71
2021/06/24 07:06:51;;;;;;;14.68;6.45;;;25.70;80.90;;;;;;5066013;28;20254;-71
2021/06/24 07:09:18;;;;;;;20.05;6.80;;;25.80;80.60;;;;;;5066278;28;20706;-71
2021/06/24 07:11:44;;;;;;;9.77;6.28;;;25.90;80.70;;;;;;5064498;28;20244;-70
2021/06/24 07:14:10;;;;;;;17.00;6.75;;;25.90;80.80;;;;;;5065791;28;20187;-70
2021/06/24 07:16:36;;;;;;;18.27;7.20;;;26.00;81.00;;;;;;5066079;28;20248;-71
2021/06/24 07:19:01;;;;;;;19.77;7.25;;;26.10;80.60;;;;;;5058265;28;20184;-70
2021/06/24 07:21:27;;;;;;;10.57;6.40;;;26.30;80.40;;;;;;5084482;28;20275;-71
2021/06/24 07:23:54;;;;;;;15.23;6.63;;;26.40;80.90;;;;;;5071260;28;20186;-70
2021/06/24 07:26:20;;;;;;;10.15;6.45;;;26.50;80.60;;;;;;5066620;28;20183;-69
2021/06/24 07:28:46;;;;;;;14.82;6.55;;;26.50;80.10;;;;;;5066771;28;20698;-69
2021/06/24 07:31:12;;;;;;;11.90;6.63;;;26.60;80.00;;;;;;5074936;28;20186;-69
2021/06/24 07:33:37;;;;;;;17.10;6.32;;;26.80;80.10;;;;;;5068928;28;20550;-69
2021/06/24 07:36:04;;;;;;;13.32;6.30;;;26.80;79.80;;;;;;5067352;28;20182;-70
2021/06/24 07:38:29;;;;;;;15.02;6.60;;;26.90;79.90;;;;;;5067171;28;20241;-69
2021/06/24 07:40:56;;;;;;;14.38;6.50;;;27.00;80.00;;;;;;5070290;28;20750;-69
2021/06/24 07:43:22;;;;;;;14.68;6.38;;;27.10;79.60;;;;;;5074314;28;20177;-69
2021/06/24 07:45:48;;;;;;;15.23;6.63;;;27.20;79.50;;;;;;5070802;28;20230;-69
2021/06/24 07:48:14;;;;;;;14.90;7.05;;;27.30;79.30;;;;;;5070779;28;20648;-69
2021/06/24 07:50:39;;;;;;;20.23;6.68;;;27.40;78.70;;;;;;5071072;28;20232;-70
2021/06/24 07:53:06;;;;;;;17.75;6.63;;;27.50;78.00;;;;;;5069772;28;20254;-70
2021/06/24 07:55:35;;;;;;;15.35;7.03;;;27.60;77.20;;;;;;5068112;28;20194;-70
2021/06/24 07:58:05;;;;;;;21.35;7.03;;;27.60;77.40;;;;;;5066733;28;20198;-70
2021/06/24 08:00:32;;;;;;;18.15;6.25;;;27.70;76.80;;;;;;5068987;28;20227;-70
2021/06/24 08:02:58;;;;;;;13.85;6.93;;;27.80;77.50;;;;;;5068801;28;20773;-70
2021/06/24 08:05:24;;;;;;;21.73;7.05;;;27.90;76.90;;;;;;5069579;28;20182;-70
2021/06/24 08:07:50;;;;;;;18.45;7.15;;;28.00;76.70;;;;;;5069195;28;20671;-70
2021/06/24 08:10:17;;;;;;;19.40;7.65;;;28.00;76.60;;;;;;5084551;28;20191;-70
2021/06/24 08:12:43;;;;;;;13.65;6.65;;;28.10;76.50;;;;;;5068893;28;20575;-70
2021/06/24 08:15:11;;;;;;;13.30;6.13;;;28.20;76.40;;;;;;5069241;28;20198;-70
2021/06/24 08:17:36;;;;;;;15.38;7.18;;;28.30;76.10;;;;;;5068726;28;20183;-70
2021/06/24 08:20:05;;;;;;;18.08;6.93;;;28.40;75.60;;;;;;5071575;28;20569;-70
2021/06/24 08:22:31;;;;;;;16.25;6.43;;;28.50;74.10;;;;;;5085597;28;20220;-70
2021/06/24 08:24:57;;;;;;;16.17;6.07;;;28.60;74.90;;;;;;5084021;28;20178;-70
2021/06/24 08:27:23;;;;;;;11.77;5.68;;;28.60;74.20;;;;;;5069670;28;20179;-69
2021/06/24 08:29:49;;;;;;;14.95;6.50;;;28.70;74.00;;;;;;5068939;28;20179;-69
2021/06/24 08:32:15;;;;;;;16.85;6.53;;;28.80;74.40;;;;;;5069714;28;20212;-70
2021/06/24 08:34:42;;;;;;;25.08;6.50;;;28.90;73.50;;;;;;5070369;28;20214;-70
2021/06/24 08:37:09;;;;;;;16.33;6.10;;;29.00;73.60;;;;;;5069054;28;20183;-70
2021/06/24 08:39:35;;;;;;;12.00;5.90;;;29.10;72.70;;;;;;5069344;28;20179;-70
2021/06/24 08:42:02;;;;;;;9.68;5.60;;;29.20;72.20;;;;;;5069130;28;20714;-68
2021/06/24 08:44:28;;;;;;;12.77;5.38;;;29.30;73.00;;;;;;5088323;28;20567;-70
2021/06/24 08:46:59;;;;;;;13.07;5.30;;;29.40;72.60;;;;;;5069695;28;20175;-70
2021/06/24 08:49:26;;;;;;;17.92;5.95;;;29.60;71.30;;;;;;5069619;28;20182;-70
2021/06/24 08:51:58;;;;;;;7.70;5.65;;;29.70;71.90;;;;;;5068551;28;20816;-70
2021/06/24 08:54:24;;;;;;;12.18;6.28;;;29.80;71.20;;;;;;5068239;28;20279;-70
2021/06/24 08:56:50;;;;;;;21.92;6.20;;;29.90;71.40;;;;;;5069411;28;20185;-70
2021/06/24 08:59:16;;;;;;;16.67;5.47;;;30.00;70.90;;;;;;5069585;28;20179;-70
2021/06/24 09:01:54;;;;;;;17.60;5.13;;;30.10;70.50;;;;;;5069712;28;20228;-70
2021/06/24 09:04:25;;;;;;;10.52;6.03;;;30.20;71.50;;;;;;5069836;28;20260;-70
2021/06/24 09:06:52;;;;;;;15.55;4.30;;;30.30;70.10;;;;;;5069614;28;20187;-70
2021/06/24 09:09:28;;;;;;;13.70;4.82;;;30.40;69.30;;;;;;5068189;28;20730;-70
2021/06/24 09:12:15;;;;;;;15.10;4.28;;;30.60;68.70;;;;;;5068250;28;20179;-70
2021/06/24 09:14:45;;;;;;;8.07;4.25;;;30.70;68.90;;;;;;5064674;28;20623;-70
2021/06/24 09:17:30;;;;;;;12.68;4.35;;;30.80;68.40;;;;;;5055958;28;21157;-68
2021/06/24 09:19:56;;;;;;;11.50;4.43;;;30.90;66.00;;;;;;5053794;28;20734;-68
2021/06/24 09:22:22;;;;;;;10.07;4.40;;;31.10;66.50;;;;;;5059764;28;20221;-71
2021/06/24 09:24:49;;;;;;;7.72;4.53;;;31.20;64.20;;;;;;5069177;28;20171;-70
2021/06/24 09:27:17;;;;;;;11.63;4.13;;;31.20;64.50;;;;;;5067553;28;20179;-69
2021/06/24 09:30:02;;;;;;;10.52;4.05;;;31.30;64.60;;;;;;5068058;28;20717;-69
2021/06/24 09:32:31;;;;;;;6.32;4.10;;;31.40;65.10;;;;;;5068172;28;20186;-68
2021/06/24 09:34:58;;;;;;;14.55;4.43;;;31.50;65.90;;;;;;5067170;28;20261;-69
2021/06/24 09:37:24;;;;;;;19.92;4.95;;;31.60;66.10;;;;;;5067696;28;20205;-69
2021/06/24 09:39:54;;;;;;;6.43;4.03;;;31.80;65.70;;;;;;5068290;28;20186;-69
2021/06/24 09:42:20;;;;;;;8.23;3.97;;;31.90;65.50;;;;;;5070365;28;20221;-69
2021/06/24 09:44:47;;;;;;;18.85;4.93;;;32.00;65.40;;;;;;5071848;28;20187;-69
2021/06/24 09:47:17;;;;;;;9.68;3.85;;;32.20;64.20;;;;;;5068745;28;20638;-69
2021/06/24 09:50:01;;;;;;;13.60;3.70;;;32.30;63.10;;;;;;5068400;28;20790;-70
2021/06/24 09:52:28;;;;;;;13.07;4.32;;;32.40;63.10;;;;;;5081590;28;20972;-68
2021/06/24 09:55:07;;;;;;;16.40;4.00;;;32.50;64.10;;;;;;5072734;28;20182;-68
2021/06/24 09:57:36;;;;;;;7.22;4.43;;;32.60;61.10;;;;;;5077831;28;20268;-68
2021/06/24 10:00:25;;;;;;;12.25;4.30;;;32.70;63.30;;;;;;5092720;28;20186;-68
2021/06/24 10:03:00;;;;;;;10.13;3.42;;;32.80;62.40;;;;;;5073351;28;20746;-67
2021/06/24 10:05:26;;;;;;;13.25;3.92;;;33.00;61.50;;;;;;5074551;28;20188;-68
2021/06/24 10:07:52;;;;;;;12.57;4.03;;;33.10;62.60;;;;;;5072161;28;20178;-69
2021/06/24 10:10:22;;;;;;;5.50;2.67;;;33.30;61.80;;;;;;5076878;28;20189;-68
2021/06/24 10:12:48;;;;;;;8.88;3.42;;;33.50;59.20;;;;;;5073034;28;20178;-68
2021/06/24 10:15:15;;;;;;;7.50;3.10;;;33.70;58.70;;;;;;5074819;28;20197;-68
2021/06/24 10:17:42;;;;;;;8.95;2.80;;;33.90;58.20;;;;;;5075998;28;20203;-68
2021/06/24 10:20:10;;;;;;;6.93;3.53;;;34.20;56.10;;;;;;5076700;28;20178;-68
2021/06/24 10:22:37;;;;;;;3.67;2.35;;;34.40;56.90;;;;;;5076933;28;20213;-68
2021/06/24 10:25:09;;;;;;;7.85;3.08;;;34.60;57.50;;;;;;5074082;28;20185;-68
2021/06/24 10:27:37;;;;;;;7.57;3.28;;;34.90;57.20;;;;;;5073513;28;20188;-68
2021/06/24 10:30:14;;;;;;;9.98;2.78;;;35.10;54.30;;;;;;5072987;28;20201;-68
2021/06/24 10:32:42;;;;;;;3.03;2.75;;;35.10;53.90;;;;;;5074922;28;20186;-68
2021/06/24 10:35:29;;;;;;;6.32;3.03;;;35.40;56.40;;;;;;5073750;28;20269;-68
2021/06/24 10:37:55;;;;;;;8.38;3.95;;;35.60;54.90;;;;;;5071807;28;20177;-71
2021/06/24 10:40:24;;;;;;;7.85;3.47;;;35.90;56.10;;;;;;5076877;28;20655;-68
2021/06/24 10:42:57;;;;;;;7.25;2.80;;;36.40;55.90;;;;;;5072860;28;20719;-68
2021/06/24 10:45:24;;;;;;;13.30;3.45;;;36.80;56.00;;;;;;5068844;28;20987;-68
2021/06/24 10:47:51;;;;;;;6.22;3.05;;;37.10;51.20;;;;;;5077716;28;20178;-68
2021/06/24 10:50:29;;;;;;;10.43;2.75;;;37.60;53.30;;;;;;5075539;28;20181;-68
2021/06/24 10:53:19;;;;;;;8.23;2.92;;;38.00;52.60;;;;;;5074994;28;20734;-68
2021/06/24 10:55:47;;;;;;;11.57;3.28;;;38.30;54.20;;;;;;5075113;28;20671;-68
2021/06/24 10:58:24;;;;;;;8.45;3.00;;;38.70;52.30;;;;;;5077886;28;20190;-68
2021/06/24 11:00:51;;;;;;;5.78;2.47;;;39.10;51.40;;;;;;5071531;28;20199;-68
2021/06/24 11:03:30;;;;;;;6.18;2.60;;;39.60;52.40;;;;;;5076560;28;20268;-68
2021/06/24 11:06:07;;;;;;;8.43;3.67;;;40.00;47.70;;;;;;5075714;28;20185;-69
2021/06/24 11:08:33;;;;;;;11.95;3.20;;;40.50;48.10;;;;;;5072096;28;20611;-68
2021/06/24 11:11:02;;;;;;;8.95;3.17;;;40.90;47.90;;;;;;5075365;28;20261;-69
2021/06/24 11:16:06;;;;;;;4.88;2.42;;;41.80;46.40;;;;;;5074457;28;20800;-70
2021/06/24 11:18:34;;;;;;;8.70;3.20;;;42.10;48.60;;;;;;5066445;28;20189;-70
2021/06/24 11:21:01;;;;;;;10.10;3.03;;;42.00;46.20;;;;;;5075192;28;20182;-69
2021/06/24 11:23:30;;;;;;;5.82;3.30;;;41.80;47.50;;;;;;5077146;28;20631;-67
2021/06/24 11:26:06;;;;;;;8.60;3.38;;;41.80;47.90;;;;;;5075852;28;20181;-69
2021/06/24 11:28:49;;;;;;;7.00;3.22;;;41.90;46.10;;;;;;5074774;28;20254;-68
2021/06/24 11:31:18;;;;;;;6.63;3.45;;;41.80;45.90;;;;;;5070295;28;20664;-68
2021/06/24 11:36:29;;;;;;;17.35;3.42;;;41.80;45.50;;;;;;5070041;28;20181;-69
2021/06/24 11:38:55;;;;;;;11.00;3.28;;;42.20;45.20;;;;;;5073416;28;20188;-69
2021/06/24 11:41:22;;;;;;;6.05;2.90;;;42.50;47.20;;;;;;5068461;28;20210;-68
2021/06/24 11:44:01;;;;;;;8.85;3.35;;;42.80;46.90;;;;;;5071669;28;20182;-68
2021/06/24 11:46:32;;;;;;;8.43;3.13;;;43.10;45.90;;;;;;5067491;28;20178;-69
2021/06/24 12:05:09;;;;;;;4.72;3.17;;;44.50;45.00;;;;;;5064710;28;20174;-69
2021/06/24 12:07:36;;;;;;;15.75;2.55;;;44.50;43.50;;;;;;5068869;28;20577;-69
2021/06/24 12:10:06;;;;;;;5.80;2.47;;;44.80;45.60;;;;;;5070708;28;20182;-70
2021/06/24 12:12:32;;;;;;;10.68;3.38;;;45.10;44.20;;;;;;5072381;28;20303;-69
2021/06/24 12:15:02;;;;;;;12.32;3.30;;;45.20;45.30;;;;;;5071133;28;20188;-69
2021/06/24 12:17:36;;;;;;;4.93;2.67;;;45.40;44.80;;;;;;5068910;28;20190;-69
2021/06/24 12:20:15;;;;;;;13.38;3.03;;;45.60;43.70;;;;;;5067474;28;20311;-69
2021/06/24 12:22:54;;;;;;;5.68;3.47;;;45.80;44.20;;;;;;5069539;28;20704;-69
2021/06/24 12:25:25;;;;;;;5.38;3.03;;;46.00;42.20;;;;;;5070214;28;20182;-69
2021/06/24 12:28:01;;;;;;;5.53;3.28;;;46.20;43.10;;;;;;5069664;28;20649;-68
2021/06/24 12:30:34;;;;;;;12.48;3.63;;;46.20;42.70;;;;;;5066754;28;20711;-68
2021/06/24 12:33:08;;;;;;;9.73;3.00;;;46.30;42.00;;;;;;5069628;28;20255;-69
2021/06/24 12:35:38;;;;;;;12.75;3.33;;;46.40;43.30;;;;;;5070384;28;20206;-69
2021/06/24 12:38:09;;;;;;;8.18;2.78;;;46.50;42.60;;;;;;5074541;28;20620;-69
2021/06/24 12:40:43;;;;;;;4.80;3.15;;;46.70;43.60;;;;;;5082990;28;20824;-68
2021/06/24 12:43:18;;;;;;;5.60;3.28;;;46.90;42.90;;;;;;5067603;28;20229;-68
2021/06/24 12:45:45;;;;;;;17.98;4.13;;;46.90;42.70;;;;;;5073276;28;20178;-68
2021/06/24 12:48:46;;;;;;;5.18;2.67;;;47.00;43.10;;;;;;5074966;28;20271;-68
2021/06/24 12:51:17;;;;;;;8.52;2.67;;;46.90;41.70;;;;;;5075387;28;20576;-70
2021/06/24 12:53:49;;;;;;;8.00;2.88;;;46.90;42.60;;;;;;5071773;28;20243;-71
2021/06/24 12:56:33;;;;;;;8.15;2.80;;;47.00;43.50;;;;;;5077125;28;20231;-68
2021/06/24 12:59:07;;;;;;;12.70;3.05;;;46.90;41.30;;;;;;5070030;28;20191;-68
2021/06/24 13:01:38;;;;;;;8.05;2.40;;;46.70;42.10;;;;;;5073183;28;20218;-68
2021/06/24 13:04:12;;;;;;;4.38;2.38;;;46.70;42.50;;;;;;5079798;28;20175;-68
2021/06/24 13:06:46;;;;;;;7.55;2.75;;;46.90;43.30;;;;;;5078070;28;20270;-68